Time;durP1;ratioP1;P1;durP2;ratioP2;P2;SDS_P1;SDS_P2;PMS_P1;PMS_P2;Temp;Humidity;BMP_temperature;BMP_pressure;BME280_temperature;BME280_humidity;BME280_pressure;Samples;Min_cycle;Max_cycle;Signal;HPM_P1;HPM_P2
2024/02/10 00:02:16;;;;;;;3.15;1.27;;;23.10;43.90;;;;;;5092262;28;20273;-58
2024/02/10 00:04:44;;;;;;;4.68;1.30;;;23.00;43.80;;;;;;5092494;28;20300;-58
2024/02/10 00:07:12;;;;;;;5.68;1.20;;;23.00;43.80;;;;;;5091878;28;20182;-58
2024/02/10 00:09:41;;;;;;;3.95;1.23;;;23.00;43.80;;;;;;5092402;28;20249;-58
2024/02/10 00:12:10;;;;;;;5.35;1.50;;;23.00;43.80;;;;;;5092034;28;20281;-57
2024/02/10 00:14:37;;;;;;;6.47;1.85;;;23.00;43.80;;;;;;5091528;28;20798;-58
2024/02/10 00:17:09;;;;;;;4.10;1.20;;;23.00;43.80;;;;;;5092203;28;20190;-58
2024/02/10 00:19:36;;;;;;;4.30;1.20;;;23.00;43.90;;;;;;5092313;28;20221;-57
2024/02/10 00:22:06;;;;;;;4.63;1.60;;;23.00;43.80;;;;;;5091743;28;20209;-58
2024/02/10 00:24:33;;;;;;;5.28;1.38;;;23.00;43.80;;;;;;5091798;28;20214;-57
2024/02/10 00:27:01;;;;;;;3.35;1.30;;;22.90;43.70;;;;;;5092037;28;20186;-58
2024/02/10 00:29:33;;;;;;;3.97;1.25;;;22.90;43.70;;;;;;5091249;28;20233;-57
2024/02/10 00:32:00;;;;;;;3.72;1.17;;;22.90;43.70;;;;;;5092127;28;20186;-57
2024/02/10 00:34:28;;;;;;;4.78;1.10;;;22.90;43.70;;;;;;5092110;28;20218;-58
2024/02/10 00:36:55;;;;;;;5.28;1.55;;;22.90;43.70;;;;;;5091343;28;20466;-57
2024/02/10 00:39:23;;;;;;;3.22;1.10;;;22.90;43.70;;;;;;5092050;28;20239;-56
2024/02/10 00:41:50;;;;;;;3.83;1.38;;;22.90;43.70;;;;;;5091991;28;20224;-57
2024/02/10 00:44:18;;;;;;;5.10;1.20;;;22.90;43.70;;;;;;5091393;28;20598;-57
2024/02/10 00:46:46;;;;;;;3.65;1.08;;;22.90;43.70;;;;;;5091968;28;20183;-57
2024/02/10 00:49:13;;;;;;;5.03;1.83;;;22.90;43.70;;;;;;5092013;28;20214;-57
2024/02/10 00:51:39;;;;;;;4.35;1.50;;;23.00;43.80;;;;;;5091563;28;20208;-57
2024/02/10 00:54:06;;;;;;;3.33;1.50;;;23.10;43.70;;;;;;5094479;28;20709;-57
2024/02/10 00:56:34;;;;;;;3.70;1.50;;;23.10;43.60;;;;;;5095440;28;20281;-57
2024/02/10 00:59:01;;;;;;;9.70;1.45;;;23.10;43.50;;;;;;5095077;28;20596;-57
2024/02/10 01:01:31;;;;;;;2.67;1.30;;;23.10;43.40;;;;;;5095108;28;20641;-57
2024/02/10 01:04:03;;;;;;;2.70;1.15;;;23.10;43.30;;;;;;5095380;28;20334;-57
2024/02/10 01:06:30;;;;;;;5.85;1.50;;;23.20;43.40;;;;;;5094873;28;20194;-58
2024/02/10 01:08:58;;;;;;;4.35;1.35;;;23.10;44.00;;;;;;5095313;28;20241;-57
2024/02/10 01:11:27;;;;;;;3.67;1.20;;;23.10;43.40;;;;;;5095124;28;20194;-57
2024/02/10 01:13:54;;;;;;;3.40;1.30;;;23.10;43.50;;;;;;5094676;28;20217;-57
2024/02/10 01:16:22;;;;;;;5.20;1.30;;;23.10;43.50;;;;;;5094789;28;20222;-57
2024/02/10 01:18:49;;;;;;;3.25;1.25;;;23.00;43.40;;;;;;5094979;28;20233;-56
2024/02/10 01:21:17;;;;;;;3.10;1.08;;;23.00;43.40;;;;;;5094427;28;20655;-56
2024/02/10 01:23:46;;;;;;;5.03;1.60;;;23.00;43.40;;;;;;5095112;28;20242;-57
2024/02/10 01:26:17;;;;;;;4.13;1.20;;;23.00;43.40;;;;;;5094817;28;20267;-57
2024/02/10 01:28:44;;;;;;;4.47;1.40;;;23.00;43.30;;;;;;5094268;28;20283;-56
2024/02/10 01:31:13;;;;;;;3.35;1.20;;;23.00;43.30;;;;;;5094581;28;20198;-56
2024/02/10 01:33:41;;;;;;;4.13;1.38;;;23.00;43.40;;;;;;5094749;28;20221;-57
2024/02/10 01:36:09;;;;;;;3.80;1.40;;;23.00;43.40;;;;;;5094275;28;20277;-57
2024/02/10 01:38:42;;;;;;;4.80;1.38;;;23.00;43.40;;;;;;5094576;28;20229;-57
2024/02/10 01:41:10;;;;;;;3.10;1.10;;;22.90;43.30;;;;;;5094285;28;20739;-57
2024/02/10 01:43:38;;;;;;;3.63;1.30;;;22.90;43.40;;;;;;5094205;28;20282;-57
2024/02/10 01:46:05;;;;;;;2.75;0.98;;;22.90;43.40;;;;;;5094491;28;20265;-58
2024/02/10 01:48:32;;;;;;;4.53;1.60;;;22.90;43.50;;;;;;5094497;28;20197;-57
2024/02/10 01:51:00;;;;;;;3.90;1.10;;;22.90;43.50;;;;;;5093744;28;20189;-57
2024/02/10 01:53:28;;;;;;;2.25;0.88;;;22.90;43.50;;;;;;5094281;28;20190;-57
2024/02/10 01:55:58;;;;;;;5.10;1.20;;;22.90;43.50;;;;;;5094320;28;20196;-57
2024/02/10 01:58:26;;;;;;;4.57;1.38;;;22.90;43.60;;;;;;5093400;28;20743;-57
2024/02/10 02:00:54;;;;;;;3.75;1.20;;;22.80;44.10;;;;;;5093964;28;20190;-58
2024/02/10 02:03:23;;;;;;;3.72;1.10;;;22.80;43.50;;;;;;5093929;28;20281;-56
2024/02/10 02:05:50;;;;;;;4.28;1.40;;;22.90;43.60;;;;;;5093395;28;20226;-57
2024/02/10 02:08:17;;;;;;;4.10;1.40;;;22.90;43.60;;;;;;5093735;28;20204;-58
2024/02/10 02:10:44;;;;;;;4.00;1.33;;;22.90;43.50;;;;;;5093874;28;20667;-57
2024/02/10 02:13:12;;;;;;;2.60;1.13;;;23.00;43.40;;;;;;5093603;28;20186;-57
2024/02/10 02:15:39;;;;;;;3.40;1.25;;;23.00;43.30;;;;;;5093790;28;20271;-57
2024/02/10 02:18:09;;;;;;;3.30;1.17;;;23.10;43.30;;;;;;5093764;28;20257;-57
2024/02/10 02:20:36;;;;;;;2.90;1.25;;;23.10;43.20;;;;;;5093302;28;20222;-57
2024/02/10 02:23:05;;;;;;;4.40;1.20;;;23.10;43.10;;;;;;5093815;28;20285;-57
2024/02/10 02:25:34;;;;;;;5.25;1.30;;;23.20;43.10;;;;;;5093830;28;20249;-58
2024/02/10 02:28:01;;;;;;;4.13;1.15;;;23.10;42.90;;;;;;5092974;28;20244;-58
2024/02/10 02:30:28;;;;;;;2.80;1.08;;;23.10;43.00;;;;;;5093635;28;20306;-56
2024/02/10 02:32:55;;;;;;;3.53;1.30;;;23.10;43.00;;;;;;5093339;28;20647;-56
2024/02/10 02:35:22;;;;;;;4.47;1.58;;;23.10;43.00;;;;;;5093196;28;20617;-58
2024/02/10 02:37:49;;;;;;;4.20;1.60;;;23.10;43.10;;;;;;5093404;28;20213;-57
2024/02/10 02:40:17;;;;;;;3.05;1.38;;;23.00;43.00;;;;;;5093434;28;20758;-57
2024/02/10 02:42:46;;;;;;;3.72;1.10;;;23.00;43.00;;;;;;5093321;28;20248;-57
2024/02/10 02:45:12;;;;;;;5.75;1.40;;;23.00;43.10;;;;;;5093387;28;20222;-57
2024/02/10 02:47:40;;;;;;;3.00;1.30;;;23.00;43.10;;;;;;5093286;28;20190;-58
2024/02/10 02:50:09;;;;;;;2.97;1.20;;;23.00;43.10;;;;;;5093002;28;20249;-57
2024/02/10 02:52:36;;;;;;;2.90;1.20;;;23.00;43.20;;;;;;5091231;28;20193;-57
2024/02/10 02:55:03;;;;;;;3.67;1.35;;;23.00;43.10;;;;;;5075996;28;20313;-55
2024/02/10 02:57:33;;;;;;;2.00;1.10;;;22.90;43.00;;;;;;5072480;28;20270;-57
2024/02/10 03:00:01;;;;;;;4.38;1.50;;;22.90;43.10;;;;;;5072483;28;20715;-57
2024/02/10 03:02:30;;;;;;;5.32;1.52;;;22.90;43.10;;;;;;5072779;28;20191;-57
2024/02/10 03:04:57;;;;;;;4.32;1.35;;;22.90;43.10;;;;;;5072540;28;20246;-57
2024/02/10 03:07:30;;;;;;;3.53;1.20;;;22.90;43.10;;;;;;5072639;28;20193;-57
2024/02/10 03:09:57;;;;;;;3.65;1.38;;;22.90;43.20;;;;;;5072071;28;20827;-57
2024/02/10 03:12:24;;;;;;;3.05;1.20;;;22.90;43.20;;;;;;5072415;28;20240;-57
2024/02/10 03:14:52;;;;;;;3.15;1.10;;;22.90;43.20;;;;;;5072540;28;20215;-57
2024/02/10 03:17:19;;;;;;;5.40;1.20;;;22.90;43.20;;;;;;5071918;28;20207;-57
2024/02/10 03:19:46;;;;;;;2.67;1.10;;;22.80;43.10;;;;;;5072287;28;20324;-58
2024/02/10 03:22:13;;;;;;;3.50;1.42;;;22.90;43.20;;;;;;5072802;28;20348;-57
2024/02/10 03:24:44;;;;;;;4.15;1.40;;;22.90;43.20;;;;;;5072122;28;20215;-57
2024/02/10 03:27:11;;;;;;;3.67;1.45;;;22.90;43.20;;;;;;5072099;28;20189;-57
2024/02/10 03:29:37;;;;;;;4.20;1.17;;;22.90;43.20;;;;;;5072094;28;20234;-57
2024/02/10 03:32:06;;;;;;;3.20;1.45;;;22.90;43.10;;;;;;5072783;28;20234;-58
2024/02/10 03:34:33;;;;;;;3.47;1.25;;;23.00;43.00;;;;;;5072118;28;20218;-57
2024/02/10 03:37:00;;;;;;;3.63;1.20;;;23.00;42.90;;;;;;5072348;28;20274;-58
2024/02/10 03:39:27;;;;;;;3.67;1.33;;;23.00;42.80;;;;;;5072392;28;20234;-57
2024/02/10 03:41:54;;;;;;;2.50;1.02;;;23.10;42.80;;;;;;5071701;28;20714;-57
2024/02/10 03:44:22;;;;;;;2.95;1.13;;;23.10;42.70;;;;;;5072048;28;20218;-58
2024/02/10 03:46:49;;;;;;;2.03;0.93;;;23.10;42.70;;;;;;5071983;28;20183;-57
2024/02/10 03:49:17;;;;;;;3.10;1.52;;;23.10;42.70;;;;;;5071989;28;20219;-57
2024/02/10 03:51:44;;;;;;;3.45;1.08;;;23.10;42.60;;;;;;5071996;28;20190;-56
2024/02/10 03:54:12;;;;;;;2.15;1.10;;;23.10;42.70;;;;;;5072258;28;20221;-58
2024/02/10 03:56:40;;;;;;;2.15;0.80;;;23.00;42.70;;;;;;5071800;28;20219;-58
2024/02/10 03:59:07;;;;;;;3.50;1.10;;;23.00;42.70;;;;;;5072148;28;20642;-58
2024/02/10 04:01:34;;;;;;;1.95;0.90;;;23.00;42.70;;;;;;5071831;28;20652;-55
2024/02/10 04:04:01;;;;;;;1.83;1.10;;;22.90;42.70;;;;;;5071864;28;20306;-57
2024/02/10 04:06:30;;;;;;;2.10;0.90;;;22.90;42.70;;;;;;5071988;28;20283;-57
2024/02/10 04:08:57;;;;;;;1.95;1.05;;;22.90;42.70;;;;;;5072179;28;20323;-58
2024/02/10 04:11:24;;;;;;;1.98;1.00;;;22.90;42.70;;;;;;5072011;28;20219;-57
2024/02/10 04:13:52;;;;;;;1.27;0.95;;;22.90;42.70;;;;;;5072248;28;20295;-57
2024/02/10 04:16:19;;;;;;;1.75;0.93;;;22.90;42.70;;;;;;5072084;28;20240;-57
2024/02/10 04:18:46;;;;;;;2.80;1.08;;;22.90;42.70;;;;;;5071571;28;20265;-56
2024/02/10 04:21:15;;;;;;;3.80;0.85;;;22.90;42.70;;;;;;5072066;28;20623;-57
2024/02/10 04:23:43;;;;;;;2.28;0.90;;;22.90;42.70;;;;;;5071986;28;20209;-53
2024/02/10 04:26:10;;;;;;;2.22;1.10;;;22.90;42.70;;;;;;5071532;28;20191;-58
2024/02/10 04:28:37;;;;;;;2.83;0.70;;;22.90;42.70;;;;;;5073790;28;20329;-56
2024/02/10 04:31:04;;;;;;;1.90;0.80;;;22.90;42.70;;;;;;5075336;28;20294;-56
2024/02/10 04:33:31;;;;;;;2.05;0.85;;;22.80;42.70;;;;;;5075224;28;20528;-57
2024/02/10 04:35:58;;;;;;;1.52;0.93;;;22.80;42.60;;;;;;5075534;28;20218;-58
2024/02/10 04:38:25;;;;;;;2.13;0.90;;;22.80;42.60;;;;;;5075213;28;20624;-56
2024/02/10 04:40:53;;;;;;;1.88;0.90;;;22.80;42.60;;;;;;5074988;28;20235;-57
2024/02/10 04:43:20;;;;;;;1.23;0.80;;;22.80;42.60;;;;;;5075432;28;20270;-57
2024/02/10 04:45:48;;;;;;;1.98;0.82;;;22.80;42.50;;;;;;5075322;28;20301;-58
2024/02/10 04:48:17;;;;;;;1.50;1.05;;;22.80;42.50;;;;;;5074948;28;20663;-57
2024/02/10 04:50:44;;;;;;;2.55;0.90;;;22.90;42.60;;;;;;5075354;28;20219;-57
2024/02/10 04:53:11;;;;;;;2.90;0.73;;;22.90;42.50;;;;;;5074986;28;20187;-56
2024/02/10 04:55:41;;;;;;;2.40;0.77;;;22.90;42.40;;;;;;5075006;28;20218;-57
2024/02/10 04:58:12;;;;;;;2.22;0.75;;;23.00;42.40;;;;;;5075201;28;20187;-56
2024/02/10 05:00:39;;;;;;;1.02;0.70;;;23.00;42.20;;;;;;5074837;28;20272;-55
2024/02/10 05:03:06;;;;;;;1.67;0.68;;;23.10;42.30;;;;;;5074691;28;20241;-57
2024/02/10 05:05:33;;;;;;;0.80;0.50;;;23.10;42.10;;;;;;5075193;28;20214;-58
2024/02/10 05:08:00;;;;;;;0.75;0.60;;;23.10;42.10;;;;;;5075351;28;20201;-57
2024/02/10 05:10:27;;;;;;;1.20;0.70;;;23.10;42.00;;;;;;5074823;28;20553;-58
2024/02/10 05:12:55;;;;;;;1.65;0.80;;;23.10;42.00;;;;;;5074632;28;20665;-56
2024/02/10 05:15:25;;;;;;;3.42;0.80;;;23.10;42.70;;;;;;5074587;28;20211;-57
2024/02/10 05:17:53;;;;;;;1.52;0.70;;;23.00;42.00;;;;;;5074472;28;20197;-57
2024/02/10 05:20:22;;;;;;;1.80;0.73;;;23.00;42.10;;;;;;5074918;28;20230;-57
2024/02/10 05:22:50;;;;;;;2.28;0.80;;;23.00;42.20;;;;;;5074746;28;20281;-57
2024/02/10 05:25:19;;;;;;;2.05;0.80;;;22.90;42.10;;;;;;5074496;28;20215;-58
2024/02/10 05:27:47;;;;;;;2.05;0.73;;;22.90;42.10;;;;;;5074225;28;20763;-56
2024/02/10 05:30:20;;;;;;;2.40;0.70;;;22.90;42.10;;;;;;5074366;28;20305;-57
2024/02/10 05:32:50;;;;;;;2.10;0.52;;;22.90;42.10;;;;;;5073968;28;20227;-57
2024/02/10 05:35:19;;;;;;;1.27;0.60;;;22.90;42.10;;;;;;5074393;28;20214;-57
2024/02/10 05:37:50;;;;;;;4.28;0.80;;;22.90;42.10;;;;;;5074487;28;20268;-57
2024/02/10 05:40:17;;;;;;;1.83;0.70;;;22.90;42.80;;;;;;5073504;28;20226;-57
2024/02/10 05:42:46;;;;;;;0.80;0.50;;;22.90;42.10;;;;;;5074111;28;20683;-56
2024/02/10 05:45:16;;;;;;;1.77;0.60;;;22.80;42.00;;;;;;5073896;28;20597;-57
2024/02/10 05:47:44;;;;;;;1.15;0.47;;;22.90;42.10;;;;;;5073879;28;20198;-58
2024/02/10 05:50:15;;;;;;;2.05;0.70;;;22.90;42.10;;;;;;5073797;28;20757;-57
2024/02/10 05:52:43;;;;;;;3.17;0.98;;;22.80;42.00;;;;;;5074372;28;20187;-56
2024/02/10 05:55:12;;;;;;;1.38;0.60;;;22.80;42.00;;;;;;5073562;28;20246;-57
2024/02/10 05:57:39;;;;;;;2.47;0.70;;;22.80;42.00;;;;;;5074295;28;20286;-58
2024/02/10 06:00:09;;;;;;;1.60;0.73;;;22.80;42.10;;;;;;5073927;28;20257;-55
2024/02/10 06:02:39;;;;;;;1.00;0.50;;;22.80;42.10;;;;;;5073668;28;20619;-57
2024/02/10 06:05:08;;;;;;;1.00;0.55;;;22.80;42.10;;;;;;5074031;28;20227;-57
2024/02/10 06:07:37;;;;;;;1.58;0.68;;;22.80;42.70;;;;;;5073812;28;20269;-58
2024/02/10 06:10:09;;;;;;;1.27;0.57;;;22.80;42.10;;;;;;5073537;28;20301;-55
2024/02/10 06:12:37;;;;;;;1.65;0.60;;;22.90;42.10;;;;;;5073785;28;20237;-57
2024/02/10 06:15:06;;;;;;;1.05;0.60;;;22.90;42.00;;;;;;5073754;28;20225;-57
2024/02/10 06:17:34;;;;;;;0.77;0.52;;;22.90;41.90;;;;;;5073460;28;20190;-58
2024/02/10 06:20:05;;;;;;;2.03;1.00;;;23.00;41.80;;;;;;5073633;28;20587;-57
2024/02/10 06:22:32;;;;;;;2.58;0.60;;;23.00;41.80;;;;;;5073236;28;20670;-55
2024/02/10 06:25:00;;;;;;;1.50;0.70;;;23.00;41.70;;;;;;5073270;28;20215;-56
2024/02/10 06:27:27;;;;;;;1.67;0.75;;;23.10;41.70;;;;;;5073025;28;20278;-56
2024/02/10 06:29:55;;;;;;;2.20;0.80;;;23.10;41.60;;;;;;5084506;28;20315;-56
2024/02/10 06:32:22;;;;;;;1.50;0.73;;;23.10;41.60;;;;;;5079326;28;20202;-57
2024/02/10 06:34:51;;;;;;;2.42;0.63;;;23.00;41.50;;;;;;5093770;28;20301;-58
2024/02/10 06:37:19;;;;;;;1.73;0.60;;;23.00;41.60;;;;;;5081334;28;20206;-58
2024/02/10 06:39:46;;;;;;;2.33;0.70;;;23.00;41.70;;;;;;5072858;28;20262;-57
2024/02/10 06:42:14;;;;;;;3.33;1.10;;;23.00;41.70;;;;;;5073191;28;20197;-57
2024/02/10 06:44:42;;;;;;;1.27;0.70;;;22.90;41.60;;;;;;5072840;28;20309;-56
2024/02/10 06:47:09;;;;;;;3.75;1.10;;;22.90;41.60;;;;;;5072786;28;20191;-58
2024/02/10 06:49:37;;;;;;;1.60;0.70;;;22.90;41.70;;;;;;5072948;28;20305;-57
2024/02/10 06:52:05;;;;;;;2.70;0.80;;;22.90;41.60;;;;;;5072495;28;20219;-57
2024/02/10 06:54:32;;;;;;;1.48;0.60;;;22.90;41.60;;;;;;5072411;28;20768;-57
2024/02/10 06:57:01;;;;;;;3.85;0.88;;;22.90;41.60;;;;;;5072553;28;20632;-55
2024/02/10 06:59:31;;;;;;;2.25;0.70;;;22.90;41.60;;;;;;5072866;28;20284;-56
2024/02/10 07:01:58;;;;;;;1.75;0.77;;;22.90;41.60;;;;;;5072623;28;20191;-58
2024/02/10 07:04:25;;;;;;;1.90;0.90;;;22.90;41.60;;;;;;5072531;28;20710;-57
2024/02/10 07:06:53;;;;;;;2.92;1.00;;;22.80;41.60;;;;;;5072551;28;20311;-57
2024/02/10 07:09:19;;;;;;;1.38;0.70;;;22.80;41.60;;;;;;5072489;28;20221;-58
2024/02/10 07:11:46;;;;;;;2.92;0.70;;;22.80;41.60;;;;;;5072676;28;20584;-57
2024/02/10 07:14:13;;;;;;;2.92;0.65;;;22.80;41.60;;;;;;5072679;28;20253;-58
2024/02/10 07:16:41;;;;;;;2.25;0.88;;;22.80;41.60;;;;;;5072467;28;20222;-57
2024/02/10 07:19:10;;;;;;;2.03;0.80;;;22.80;41.60;;;;;;5072650;28;20221;-57
2024/02/10 07:21:37;;;;;;;2.15;0.77;;;22.80;41.70;;;;;;5072490;28;20215;-57
2024/02/10 07:24:05;;;;;;;1.92;0.75;;;22.80;41.60;;;;;;5072226;28;20221;-57
2024/02/10 07:26:32;;;;;;;2.63;0.80;;;22.80;41.70;;;;;;5072608;28;20206;-57
2024/02/10 07:29:01;;;;;;;2.00;0.70;;;22.80;41.70;;;;;;5072137;28;20237;-56
2024/02/10 07:31:27;;;;;;;3.50;0.73;;;22.80;41.70;;;;;;5071937;28;20664;-58
2024/02/10 07:33:58;;;;;;;5.00;0.90;;;22.80;41.60;;;;;;5072431;28;20191;-57
2024/02/10 07:36:32;;;;;;;1.02;0.60;;;22.90;41.50;;;;;;5072475;28;20627;-57
2024/02/10 07:39:00;;;;;;;2.08;0.60;;;22.90;41.40;;;;;;5072106;28;20193;-57
2024/02/10 07:41:27;;;;;;;3.65;0.88;;;23.00;41.40;;;;;;5072326;28;20211;-58
2024/02/10 07:43:54;;;;;;;2.05;0.80;;;23.00;41.30;;;;;;5072441;28;20630;-56
2024/02/10 07:46:20;;;;;;;2.15;0.60;;;23.00;41.30;;;;;;5071945;28;20206;-58
2024/02/10 07:48:48;;;;;;;1.95;0.70;;;23.00;41.20;;;;;;5072181;28;20193;-57
2024/02/10 07:51:20;;;;;;;1.45;0.50;;;23.10;41.20;;;;;;5072364;28;20195;-57
2024/02/10 07:53:47;;;;;;;1.92;0.60;;;23.10;41.10;;;;;;5071604;28;20645;-57
2024/02/10 07:56:14;;;;;;;2.17;0.68;;;23.00;41.10;;;;;;5072290;28;20210;-57
2024/02/10 07:58:41;;;;;;;2.28;0.77;;;23.00;41.10;;;;;;5072278;28;20191;-57
2024/02/10 08:01:08;;;;;;;2.92;1.20;;;22.90;41.10;;;;;;5071635;28;20236;-57
2024/02/10 08:03:35;;;;;;;3.85;0.90;;;22.90;41.20;;;;;;5076140;28;20187;-57
2024/02/10 08:06:04;;;;;;;3.35;0.90;;;22.90;41.20;;;;;;5076455;28;20214;-56
2024/02/10 08:08:32;;;;;;;2.47;0.90;;;22.90;41.20;;;;;;5075586;28;20230;-55
2024/02/10 08:10:59;;;;;;;3.95;0.90;;;22.90;41.20;;;;;;5076032;28;20297;-57
2024/02/10 08:13:27;;;;;;;1.55;0.63;;;22.90;41.20;;;;;;5075809;28;20226;-57
2024/02/10 08:15:55;;;;;;;3.40;1.05;;;22.90;41.20;;;;;;5075256;28;20568;-57
2024/02/10 08:18:22;;;;;;;3.47;1.05;;;22.80;41.20;;;;;;5075904;28;20222;-58
2024/02/10 08:20:49;;;;;;;3.17;1.00;;;22.80;41.20;;;;;;5076378;28;20261;-57
2024/02/10 08:23:16;;;;;;;2.88;1.02;;;22.80;41.20;;;;;;5075557;28;20270;-57
2024/02/10 08:25:48;;;;;;;2.10;0.80;;;22.80;41.20;;;;;;5075873;28;20222;-57
2024/02/10 08:28:14;;;;;;;2.53;1.08;;;22.80;41.20;;;;;;5075530;28;20222;-57
2024/02/10 08:30:44;;;;;;;4.68;1.23;;;22.80;41.30;;;;;;5075443;28;20246;-57
2024/02/10 08:33:11;;;;;;;2.45;1.00;;;22.70;41.20;;;;;;5075735;28;20191;-55
2024/02/10 08:35:40;;;;;;;3.25;1.10;;;22.70;41.30;;;;;;5075699;28;20219;-55
2024/02/10 08:38:09;;;;;;;2.95;1.23;;;22.70;41.30;;;;;;5075307;28;20195;-56
2024/02/10 08:40:36;;;;;;;4.03;1.17;;;22.70;41.30;;;;;;5075650;28;20222;-57
2024/02/10 08:43:08;;;;;;;3.10;1.00;;;22.70;41.30;;;;;;5075559;28;20630;-57
2024/02/10 08:45:35;;;;;;;3.15;1.27;;;22.70;41.30;;;;;;5075064;28;20218;-58
2024/02/10 08:48:02;;;;;;;2.78;0.98;;;22.70;42.00;;;;;;5075376;28;20187;-57
2024/02/10 08:50:31;;;;;;;2.78;1.00;;;22.80;41.30;;;;;;5075282;28;20310;-56
2024/02/10 08:52:58;;;;;;;2.38;1.05;;;22.80;41.20;;;;;;5074933;28;20192;-56
2024/02/10 08:55:26;;;;;;;4.05;1.05;;;22.90;41.20;;;;;;5075537;28;20214;-58
2024/02/10 08:57:55;;;;;;;2.55;1.13;;;22.90;41.10;;;;;;5075194;28;20183;-57
2024/02/10 09:00:24;;;;;;;5.35;1.60;;;22.90;41.00;;;;;;5074816;28;20233;-56
2024/02/10 09:02:51;;;;;;;3.25;1.40;;;23.00;41.00;;;;;;5074798;28;20191;-57
2024/02/10 09:05:18;;;;;;;2.72;1.20;;;23.00;40.90;;;;;;5075232;28;20305;-55
2024/02/10 09:07:44;;;;;;;2.58;1.30;;;23.00;40.80;;;;;;5074675;28;20266;-57
2024/02/10 09:10:11;;;;;;;3.33;1.20;;;23.10;40.80;;;;;;5074791;28;20730;-58
2024/02/10 09:12:39;;;;;;;2.50;1.10;;;23.00;40.70;;;;;;5074831;28;20634;-57
2024/02/10 09:15:06;;;;;;;3.03;1.27;;;23.00;40.80;;;;;;5073671;28;20289;-57
2024/02/10 09:17:34;;;;;;;3.70;1.30;;;22.90;40.70;;;;;;5074895;28;20222;-55
2024/02/10 09:20:01;;;;;;;3.83;1.40;;;22.90;40.80;;;;;;5074826;28;20254;-57
2024/02/10 09:22:28;;;;;;;3.53;1.20;;;22.90;40.80;;;;;;5074051;28;20197;-57
2024/02/10 09:24:55;;;;;;;2.53;1.10;;;22.90;40.90;;;;;;5075008;28;20305;-57
2024/02/10 09:27:22;;;;;;;4.63;1.45;;;22.80;40.80;;;;;;5074225;28;20282;-57
2024/02/10 09:29:51;;;;;;;4.20;1.20;;;22.80;40.80;;;;;;5074010;28;20215;-54
2024/02/10 09:32:18;;;;;;;3.63;0.95;;;22.80;40.90;;;;;;5074862;28;20195;-57
2024/02/10 09:34:46;;;;;;;2.97;1.10;;;22.80;40.90;;;;;;5074719;28;20640;-56
2024/02/10 09:37:14;;;;;;;4.20;1.50;;;22.80;40.90;;;;;;5073883;28;20197;-57
2024/02/10 09:39:41;;;;;;;3.03;1.48;;;22.80;40.90;;;;;;5074117;28;20752;-57
2024/02/10 09:42:10;;;;;;;4.57;1.13;;;22.80;40.90;;;;;;5074032;28;20218;-57
2024/02/10 09:44:38;;;;;;;5.10;1.60;;;22.80;41.00;;;;;;5074008;28;20296;-58
2024/02/10 09:47:08;;;;;;;5.57;1.60;;;22.70;40.90;;;;;;5074308;28;20191;-57
2024/02/10 09:49:35;;;;;;;2.22;1.00;;;22.70;40.90;;;;;;5074168;28;20245;-57
2024/02/10 09:52:03;;;;;;;3.15;1.27;;;22.60;40.90;;;;;;5073996;28;20290;-57
2024/02/10 09:54:30;;;;;;;6.53;1.60;;;22.70;41.00;;;;;;5074201;28;20246;-58
2024/02/10 09:56:58;;;;;;;4.32;1.48;;;22.70;41.00;;;;;;5073976;28;20201;-57
2024/02/10 09:59:26;;;;;;;6.80;1.60;;;22.70;41.00;;;;;;5073786;28;20218;-55
2024/02/10 10:01:56;;;;;;;4.38;1.52;;;22.70;41.00;;;;;;5073920;28;20215;-57
2024/02/10 10:04:23;;;;;;;6.82;1.70;;;22.70;41.00;;;;;;5074041;28;20554;-57
2024/02/10 10:06:51;;;;;;;4.78;1.60;;;22.80;41.00;;;;;;5073518;28;20197;-57
2024/02/10 10:09:19;;;;;;;2.20;1.05;;;22.80;41.00;;;;;;5073906;28;20311;-58
2024/02/10 10:11:47;;;;;;;4.50;1.33;;;22.80;40.80;;;;;;5072432;28;20230;-57
2024/02/10 10:14:16;;;;;;;3.90;1.25;;;22.90;40.80;;;;;;5073411;28;20256;-57
2024/02/10 10:16:56;;;;;;;4.88;1.63;;;22.90;40.80;;;;;;5074212;28;20195;-55
2024/02/10 10:19:23;;;;;;;3.92;1.38;;;22.90;40.70;;;;;;5073610;28;20250;-57
2024/02/10 10:21:53;;;;;;;7.07;1.67;;;22.90;41.20;;;;;;5073222;28;20325;-57
2024/02/10 10:24:22;;;;;;;4.03;1.20;;;23.00;40.60;;;;;;5073731;28;20237;-58
2024/02/10 10:26:50;;;;;;;3.42;1.23;;;23.00;41.20;;;;;;5073444;28;20187;-57
2024/02/10 10:29:19;;;;;;;5.43;1.30;;;23.10;40.50;;;;;;5072789;28;20746;-57
2024/02/10 10:31:49;;;;;;;5.65;1.55;;;23.10;40.50;;;;;;5073716;28;20205;-58
2024/02/10 10:34:19;;;;;;;5.40;1.40;;;23.00;41.10;;;;;;5073414;28;20197;-57
2024/02/10 10:36:48;;;;;;;4.18;1.20;;;23.00;40.50;;;;;;5072956;28;20414;-58
2024/02/10 10:39:16;;;;;;;7.15;2.05;;;22.90;41.10;;;;;;5073262;28;20202;-57
2024/02/10 10:41:46;;;;;;;6.53;1.63;;;22.90;40.50;;;;;;5072897;28;20225;-56
2024/02/10 10:44:13;;;;;;;6.80;1.50;;;22.90;40.60;;;;;;5072792;28;20218;-57
2024/02/10 10:46:40;;;;;;;5.22;1.48;;;22.90;40.60;;;;;;5073130;28;20202;-57
2024/02/10 10:49:09;;;;;;;3.33;1.50;;;22.80;40.50;;;;;;5072729;28;20675;-56
2024/02/10 10:51:45;;;;;;;5.20;1.48;;;22.80;40.50;;;;;;5072740;28;20187;-57
2024/02/10 10:54:14;;;;;;;4.97;1.65;;;22.80;40.50;;;;;;5072984;28;20227;-56
2024/02/10 10:56:41;;;;;;;5.28;1.48;;;22.80;40.50;;;;;;5072578;28;20187;-56
2024/02/10 10:59:10;;;;;;;6.47;1.77;;;22.80;40.50;;;;;;5072506;28;20222;-57
2024/02/10 11:01:40;;;;;;;7.97;1.85;;;22.80;41.20;;;;;;5073208;28;20225;-58
2024/02/10 11:04:11;;;;;;;5.30;1.35;;;22.70;40.40;;;;;;5072491;28;20565;-57
2024/02/10 11:06:44;;;;;;;5.75;1.50;;;22.70;40.40;;;;;;5072436;28;20274;-56
2024/02/10 11:09:16;;;;;;;7.63;2.10;;;22.70;40.40;;;;;;5072713;28;20183;-57
2024/02/10 11:11:47;;;;;;;9.70;1.90;;;22.70;40.40;;;;;;5072504;28;20187;-55
2024/02/10 11:14:15;;;;;;;9.02;1.95;;;22.70;40.40;;;;;;5072220;28;20290;-57
2024/02/10 11:16:43;;;;;;;6.18;2.20;;;22.70;40.40;;;;;;5072279;28;20718;-57
2024/02/10 11:19:12;;;;;;;5.70;1.80;;;22.70;40.30;;;;;;5072666;28;20202;-58
2024/02/10 11:21:41;;;;;;;6.95;1.98;;;22.70;40.30;;;;;;5072328;28;20268;-57
2024/02/10 11:24:11;;;;;;;4.40;1.58;;;22.80;40.40;;;;;;5072200;28;20191;-58
2024/02/10 11:26:39;;;;;;;6.90;1.83;;;22.80;40.40;;;;;;5072493;28;20191;-56
2024/02/10 11:29:07;;;;;;;7.55;1.73;;;22.80;40.30;;;;;;5071756;28;20233;-56
2024/02/10 11:31:39;;;;;;;6.68;1.70;;;22.90;40.20;;;;;;5072366;28;20234;-57
2024/02/10 11:34:11;;;;;;;5.07;1.38;;;22.90;40.20;;;;;;5072039;28;20187;-57
2024/02/10 11:36:39;;;;;;;7.15;1.98;;;22.90;40.10;;;;;;5071545;28;20190;-57
2024/02/10 11:39:08;;;;;;;5.80;1.95;;;22.90;40.00;;;;;;5072314;28;20281;-56
2024/02/10 11:41:35;;;;;;;5.40;1.88;;;23.00;40.00;;;;;;5071987;28;20710;-57
2024/02/10 11:44:02;;;;;;;6.32;2.03;;;23.00;39.90;;;;;;5072041;28;20285;-57
2024/02/10 11:46:29;;;;;;;7.32;1.70;;;23.00;39.70;;;;;;5072223;28;20307;-57
2024/02/10 11:48:59;;;;;;;5.30;1.75;;;23.00;39.80;;;;;;5072259;28;20561;-57
2024/02/10 11:51:28;;;;;;;5.80;1.85;;;23.00;39.80;;;;;;5071935;28;20222;-57
2024/02/10 11:53:56;;;;;;;7.97;2.00;;;22.90;39.70;;;;;;5072602;28;20194;-57
2024/02/10 11:56:25;;;;;;;8.95;2.15;;;22.90;39.80;;;;;;5072400;28;20261;-56
2024/02/10 11:58:52;;;;;;;6.60;1.75;;;22.90;39.90;;;;;;5071546;28;20187;-57
2024/02/10 12:01:19;;;;;;;7.05;2.30;;;22.80;39.80;;;;;;5072065;28;20234;-58
2024/02/10 12:03:48;;;;;;;6.43;2.33;;;22.80;39.80;;;;;;5072203;28;20193;-57
2024/02/10 12:06:20;;;;;;;5.38;2.20;;;22.80;39.80;;;;;;5071428;28;20691;-57
2024/02/10 12:08:47;;;;;;;6.43;1.90;;;22.80;39.80;;;;;;5072118;28;20190;-58
2024/02/10 12:11:16;;;;;;;7.57;2.20;;;22.80;39.80;;;;;;5072304;28;20330;-56
2024/02/10 12:13:45;;;;;;;9.23;2.30;;;22.80;40.40;;;;;;5071778;28;20198;-56
2024/02/10 12:16:12;;;;;;;6.38;2.20;;;22.80;39.70;;;;;;5072261;28;20215;-57
2024/02/10 12:18:40;;;;;;;8.45;2.35;;;22.80;39.70;;;;;;5072065;28;20270;-58
2024/02/10 12:21:07;;;;;;;8.13;2.65;;;22.80;39.70;;;;;;5071731;28;20219;-57
2024/02/10 12:23:36;;;;;;;6.05;2.05;;;22.70;39.60;;;;;;5071677;28;20653;-56
2024/02/10 12:26:03;;;;;;;8.90;2.60;;;22.80;39.60;;;;;;5072200;28;20309;-57
2024/02/10 12:28:35;;;;;;;5.68;2.38;;;22.70;39.50;;;;;;5071346;28;20317;-56
2024/02/10 12:31:02;;;;;;;6.88;2.72;;;22.70;39.50;;;;;;5072233;28;20553;-57
2024/02/10 12:33:29;;;;;;;9.13;3.13;;;22.70;39.50;;;;;;5071863;28;20222;-54
2024/02/10 12:35:56;;;;;;;7.45;2.25;;;22.70;39.50;;;;;;5071618;28;20211;-55
2024/02/10 12:38:25;;;;;;;6.90;2.30;;;22.70;39.50;;;;;;5071873;28;20183;-56
2024/02/10 12:40:53;;;;;;;8.60;2.40;;;22.70;39.60;;;;;;5071603;28;20214;-58
2024/02/10 12:43:23;;;;;;;5.75;1.95;;;22.80;39.60;;;;;;5071099;28;20215;-57
2024/02/10 12:45:51;;;;;;;6.95;2.30;;;22.80;39.50;;;;;;5080995;28;20218;-58
2024/02/10 12:48:18;;;;;;;8.13;3.00;;;22.80;39.40;;;;;;5091084;28;20272;-58
2024/02/10 12:50:47;;;;;;;7.70;2.83;;;22.80;39.20;;;;;;5077072;28;20663;-58
2024/02/10 12:53:14;;;;;;;5.93;2.38;;;22.90;39.10;;;;;;5092549;28;20210;-56